Time;durP1;ratioP1;P1;durP2;ratioP2;P2;SDS_P1;SDS_P2;PMS_P1;PMS_P2;Temp;Humidity;BMP_temperature;BMP_pressure;BME280_temperature;BME280_humidity;BME280_pressure;Samples;Min_cycle;Max_cycle;Signal;HPM_P1;HPM_P2
2021/08/07 00:01:24;;;;;;;7.72;6.85;;;16.60;99.90;;;;;;5110088;28;20126;-56
2021/08/07 00:03:51;;;;;;;12.38;8.23;;;16.60;99.90;;;;;;5108740;28;20070;-58
2021/08/07 00:06:20;;;;;;;9.48;7.93;;;16.60;99.90;;;;;;5103120;28;20063;-59
2021/08/07 00:08:50;;;;;;;12.02;8.07;;;16.60;99.90;;;;;;5109108;28;20141;-58
2021/08/07 00:11:16;;;;;;;7.88;6.53;;;16.60;99.90;;;;;;5109047;28;20056;-58
2021/08/07 00:13:43;;;;;;;10.80;7.53;;;16.60;99.90;;;;;;5108290;27;20778;-56
2021/08/07 00:16:10;;;;;;;7.78;6.85;;;16.60;99.90;;;;;;5108370;28;20055;-57
2021/08/07 00:18:40;;;;;;;8.30;7.35;;;16.50;99.90;;;;;;5110031;28;20039;-58
2021/08/07 00:21:06;;;;;;;9.77;7.20;;;16.50;99.90;;;;;;5111341;28;20150;-58
2021/08/07 00:23:32;;;;;;;8.55;7.10;;;16.50;99.90;;;;;;5111689;28;20062;-57
2021/08/07 00:26:01;;;;;;;8.23;7.05;;;16.50;99.90;;;;;;5108199;28;20139;-54
2021/08/07 00:28:34;;;;;;;9.30;8.40;;;16.50;99.90;;;;;;5108418;28;20036;-57
2021/08/07 00:31:03;;;;;;;10.57;6.88;;;16.50;99.90;;;;;;5105355;27;20051;-57
2021/08/07 00:33:37;;;;;;;10.05;7.95;;;16.50;99.90;;;;;;5089797;28;20123;-57
2021/08/07 00:36:04;;;;;;;8.20;7.40;;;16.50;99.90;;;;;;5088486;28;20137;-57
2021/08/07 00:38:30;;;;;;;8.38;6.65;;;16.50;99.90;;;;;;5089864;28;20062;-58
2021/08/07 00:41:01;;;;;;;10.05;5.88;;;16.40;99.90;;;;;;5091460;28;20051;-58
2021/08/07 00:43:33;;;;;;;10.13;5.70;;;16.40;99.90;;;;;;5088505;28;20044;-55
2021/08/07 00:46:02;;;;;;;7.25;5.15;;;16.40;99.90;;;;;;5074215;28;20511;-58
2021/08/07 00:48:37;;;;;;;7.40;4.35;;;16.40;99.90;;;;;;5110076;28;20047;-57
2021/08/07 00:51:17;;;;;;;6.53;4.20;;;16.40;99.90;;;;;;5107631;28;20059;-58
2021/08/07 00:53:46;;;;;;;8.07;4.20;;;16.40;99.90;;;;;;5088753;28;20047;-58
2021/08/07 00:56:18;;;;;;;9.15;4.18;;;16.40;99.90;;;;;;5073296;28;20055;-55
2021/08/07 00:58:50;;;;;;;8.20;4.25;;;16.40;99.90;;;;;;5090359;28;20048;-58
2021/08/07 01:01:27;;;;;;;6.50;4.28;;;16.30;99.90;;;;;;5090848;28;20103;-58
2021/08/07 01:03:56;;;;;;;5.22;3.45;;;16.30;99.90;;;;;;5090565;28;20051;-58
2021/08/07 01:06:48;;;;;;;9.15;4.45;;;16.30;99.90;;;;;;5105316;28;20048;-58
2021/08/07 01:09:42;;;;;;;6.25;3.17;;;16.20;99.90;;;;;;5089519;28;20055;-57
2021/08/07 01:12:47;;;;;;;5.40;3.22;;;16.20;99.90;;;;;;5088572;28;20489;-57
2021/08/07 01:15:23;;;;;;;5.72;2.90;;;16.20;99.90;;;;;;5107381;28;20058;-58
2021/08/07 01:17:53;;;;;;;7.32;3.10;;;16.20;99.90;;;;;;5090896;28;20506;-57
2021/08/07 01:21:03;;;;;;;4.82;2.63;;;16.10;99.90;;;;;;5089539;28;20065;-58
2021/08/07 01:23:56;;;;;;;5.88;3.58;;;16.10;99.90;;;;;;4985962;28;20484;-58
2021/08/07 01:26:38;;;;;;;6.30;2.67;;;16.10;99.90;;;;;;4969354;28;20058;-58
2021/08/07 01:29:19;;;;;;;5.55;2.60;;;16.10;99.90;;;;;;4985102;28;20145;-58
2021/08/07 01:31:52;;;;;;;5.90;2.50;;;16.10;99.90;;;;;;4973060;28;20046;-57
2021/08/07 01:34:25;;;;;;;5.35;2.47;;;16.10;99.90;;;;;;4979967;28;20050;-58
2021/08/07 01:36:52;;;;;;;5.72;2.42;;;16.10;99.90;;;;;;4968098;28;20057;-58
2021/08/07 01:39:43;;;;;;;7.05;2.45;;;16.10;99.90;;;;;;4984690;28;20047;-58
2021/08/07 01:42:10;;;;;;;6.25;2.50;;;16.10;99.90;;;;;;4987989;28;20042;-58
2021/08/07 01:44:37;;;;;;;5.60;2.58;;;16.10;99.90;;;;;;4970072;28;20050;-58
2021/08/07 01:47:39;;;;;;;5.93;2.60;;;16.10;99.90;;;;;;4983946;28;20054;-57
2021/08/07 01:50:38;;;;;;;4.18;2.40;;;16.10;99.90;;;;;;4977345;28;20046;-59
2021/08/07 01:53:10;;;;;;;4.45;2.45;;;16.10;99.90;;;;;;4990618;28;20418;-58
2021/08/07 01:55:51;;;;;;;5.68;2.47;;;16.00;99.90;;;;;;4995633;28;20109;-57
2021/08/07 01:58:29;;;;;;;4.78;2.90;;;16.00;99.90;;;;;;4989269;28;20102;-58
2021/08/07 02:00:57;;;;;;;6.13;2.63;;;16.00;99.90;;;;;;5082908;28;20113;-56
2021/08/07 02:03:34;;;;;;;3.95;2.35;;;16.00;99.90;;;;;;5094751;28;20055;-59
2021/08/07 02:06:01;;;;;;;3.75;2.13;;;16.00;99.90;;;;;;5095278;27;20148;-59
2021/08/07 02:08:29;;;;;;;5.43;2.50;;;15.90;99.90;;;;;;5094008;28;20052;-58
2021/08/07 02:10:58;;;;;;;5.35;2.65;;;15.90;99.90;;;;;;5095119;28;20051;-59
2021/08/07 02:13:25;;;;;;;6.30;2.80;;;15.90;99.90;;;;;;5090803;28;20121;-58
2021/08/07 02:16:00;;;;;;;5.97;2.72;;;15.90;99.90;;;;;;5077997;28;20617;-58
2021/08/07 02:18:32;;;;;;;5.60;2.65;;;15.90;99.90;;;;;;5093988;28;20120;-58
2021/08/07 02:21:01;;;;;;;5.88;2.58;;;15.90;99.90;;;;;;5094612;28;20570;-59
2021/08/07 02:23:34;;;;;;;5.57;2.53;;;15.90;99.90;;;;;;5088475;28;20059;-57
2021/08/07 02:26:04;;;;;;;8.35;2.70;;;15.90;99.90;;;;;;5096073;28;20380;-57
2021/08/07 02:28:41;;;;;;;5.80;3.00;;;15.90;99.90;;;;;;5093882;28;20059;-55
2021/08/07 02:31:13;;;;;;;6.22;3.08;;;15.80;99.90;;;;;;5095183;28;20519;-57
2021/08/07 02:33:44;;;;;;;6.10;3.33;;;15.80;99.90;;;;;;5092648;28;20151;-58
2021/08/07 02:36:15;;;;;;;7.88;3.40;;;15.80;99.90;;;;;;5099734;28;20070;-57
2021/08/07 02:38:47;;;;;;;5.75;3.25;;;15.70;99.90;;;;;;5094832;28;20070;-58
2021/08/07 02:41:22;;;;;;;6.00;3.08;;;15.80;99.90;;;;;;5102919;28;20077;-58
2021/08/07 02:43:52;;;;;;;6.97;3.70;;;15.70;99.90;;;;;;5112979;27;20509;-56
2021/08/07 02:46:19;;;;;;;8.27;3.85;;;15.70;99.90;;;;;;5096847;28;20051;-57
2021/08/07 02:48:53;;;;;;;8.18;4.47;;;15.70;99.90;;;;;;5076214;28;20055;-59
2021/08/07 02:51:21;;;;;;;9.55;3.70;;;15.70;99.90;;;;;;5113249;28;20119;-59
2021/08/07 02:53:54;;;;;;;5.80;3.75;;;15.70;99.90;;;;;;5095900;28;20051;-58
2021/08/07 02:56:25;;;;;;;6.57;3.40;;;15.70;99.90;;;;;;5095783;28;20051;-58
2021/08/07 02:58:51;;;;;;;8.63;3.53;;;15.70;99.90;;;;;;5074906;28;20522;-58
2021/08/07 03:01:19;;;;;;;6.68;3.70;;;15.70;99.90;;;;;;5086563;28;20048;-56
2021/08/07 03:03:51;;;;;;;6.22;3.85;;;15.70;99.90;;;;;;5074690;28;20047;-58
2021/08/07 03:06:19;;;;;;;6.25;3.60;;;15.70;99.90;;;;;;5088328;28;20456;-56
2021/08/07 03:08:45;;;;;;;6.53;3.58;;;15.70;99.90;;;;;;5077149;28;20043;-54
2021/08/07 03:11:13;;;;;;;7.10;3.55;;;15.70;99.90;;;;;;5091352;28;20047;-57
2021/08/07 03:13:47;;;;;;;5.50;3.45;;;15.60;99.90;;;;;;5093855;28;20081;-58
2021/08/07 03:16:16;;;;;;;8.75;4.25;;;15.60;99.90;;;;;;5092564;28;20130;-55
2021/08/07 03:18:48;;;;;;;8.68;3.58;;;15.60;99.90;;;;;;5090480;28;20457;-59
2021/08/07 03:21:20;;;;;;;6.82;3.70;;;15.60;99.90;;;;;;5092723;28;20044;-59
2021/08/07 03:23:54;;;;;;;7.18;3.60;;;15.60;99.90;;;;;;5092263;28;20040;-58
2021/08/07 03:26:23;;;;;;;7.95;3.78;;;15.50;99.90;;;;;;5091999;28;20544;-58
2021/08/07 03:28:51;;;;;;;9.50;4.20;;;15.50;99.90;;;;;;5092103;28;20055;-59
2021/08/07 03:31:24;;;;;;;6.93;4.28;;;15.50;99.90;;;;;;5091406;28;20048;-59
2021/08/07 03:33:53;;;;;;;12.50;4.78;;;15.40;99.90;;;;;;5091643;28;20051;-59
2021/08/07 03:36:23;;;;;;;12.55;4.70;;;15.30;99.90;;;;;;5092189;28;20097;-60
2021/08/07 03:38:56;;;;;;;7.47;4.05;;;15.30;99.90;;;;;;5090075;28;20058;-59
2021/08/07 03:41:23;;;;;;;10.43;4.57;;;15.20;99.90;;;;;;5090990;28;20071;-57
2021/08/07 03:43:51;;;;;;;9.25;3.83;;;15.10;99.90;;;;;;5086126;28;20788;-60
2021/08/07 03:46:19;;;;;;;9.75;4.03;;;15.10;99.90;;;;;;5073730;28;20058;-58
2021/08/07 03:48:50;;;;;;;8.75;4.20;;;15.00;99.90;;;;;;5107958;28;20051;-53
2021/08/07 03:51:19;;;;;;;9.70;3.90;;;15.00;99.90;;;;;;5107000;28;20152;-58
2021/08/07 03:53:47;;;;;;;8.60;4.03;;;15.00;99.90;;;;;;5108685;27;20556;-59
2021/08/07 03:56:22;;;;;;;8.52;3.97;;;14.90;99.90;;;;;;5089900;28;20047;-57
2021/08/07 03:58:49;;;;;;;7.35;3.92;;;14.90;99.90;;;;;;5088365;28;20579;-57
2021/08/07 04:01:19;;;;;;;9.95;4.30;;;14.80;99.90;;;;;;5109314;28;20044;-58
2021/08/07 04:03:46;;;;;;;7.13;3.90;;;14.80;99.90;;;;;;5089949;28;20506;-57
2021/08/07 04:06:16;;;;;;;9.38;4.30;;;14.70;99.90;;;;;;5089643;28;20040;-57
2021/08/07 04:08:43;;;;;;;9.43;4.75;;;14.70;99.90;;;;;;5088947;28;20047;-54
2021/08/07 04:11:12;;;;;;;7.85;4.60;;;14.70;99.90;;;;;;5088059;28;20119;-56
2021/08/07 04:13:46;;;;;;;12.57;4.72;;;14.60;99.90;;;;;;5092332;28;20040;-56
2021/08/07 04:16:12;;;;;;;8.60;4.30;;;14.60;99.90;;;;;;5089868;28;20140;-59
2021/08/07 04:18:39;;;;;;;10.95;5.07;;;14.60;99.90;;;;;;5097675;28;20039;-59
2021/08/07 04:21:06;;;;;;;7.80;4.35;;;14.60;99.90;;;;;;5108413;28;20052;-58
2021/08/07 04:23:35;;;;;;;10.57;4.40;;;14.60;99.90;;;;;;5108706;28;20100;-55
2021/08/07 04:26:02;;;;;;;11.77;5.63;;;14.50;99.90;;;;;;5081851;28;20165;-59
2021/08/07 04:28:34;;;;;;;9.07;4.55;;;14.50;99.90;;;;;;5090183;28;20070;-58
2021/08/07 04:31:01;;;;;;;13.32;5.28;;;14.50;99.90;;;;;;5109877;27;20035;-58
2021/08/07 04:33:29;;;;;;;9.25;4.25;;;14.40;99.90;;;;;;5089406;28;20078;-58
2021/08/07 04:36:07;;;;;;;11.27;4.82;;;14.40;99.90;;;;;;5081425;28;20039;-55
2021/08/07 04:38:36;;;;;;;9.13;4.53;;;14.40;99.90;;;;;;5090212;28;20059;-58
2021/08/07 04:41:03;;;;;;;13.98;4.40;;;14.40;99.90;;;;;;5089839;28;20058;-59
2021/08/07 04:43:36;;;;;;;11.95;5.05;;;14.40;99.90;;;;;;5090126;28;20100;-55
2021/08/07 04:46:03;;;;;;;12.25;4.72;;;14.40;99.90;;;;;;5103762;27;20074;-57
2021/08/07 04:48:30;;;;;;;12.82;4.75;;;14.40;99.90;;;;;;5090096;28;20047;-59
2021/08/07 04:51:01;;;;;;;12.25;4.78;;;14.40;99.90;;;;;;5106044;28;20039;-59
2021/08/07 04:53:34;;;;;;;12.05;4.70;;;14.50;99.90;;;;;;5089897;28;20047;-58
2021/08/07 04:56:07;;;;;;;9.15;4.03;;;14.40;99.90;;;;;;5093827;28;20144;-59
2021/08/07 04:58:34;;;;;;;10.32;4.97;;;14.50;99.90;;;;;;5070168;28;20063;-58
2021/08/07 05:01:00;;;;;;;8.52;4.30;;;14.60;99.90;;;;;;5089868;28;20052;-59
2021/08/07 05:03:30;;;;;;;9.63;4.28;;;14.60;99.90;;;;;;5107592;28;20054;-59
2021/08/07 05:06:00;;;;;;;10.10;4.65;;;14.70;99.90;;;;;;5110958;28;20046;-62
2021/08/07 05:08:29;;;;;;;11.20;4.55;;;14.90;99.90;;;;;;5085561;28;20048;-61
2021/08/07 05:10:57;;;;;;;11.43;4.22;;;15.00;99.90;;;;;;5072629;28;20062;-63
2021/08/07 05:13:26;;;;;;;11.52;4.20;;;15.20;99.90;;;;;;5084549;28;20123;-62
2021/08/07 05:15:53;;;;;;;8.52;3.92;;;15.50;99.90;;;;;;5107989;28;20638;-62
2021/08/07 05:18:21;;;;;;;9.75;4.07;;;15.90;99.90;;;;;;5108346;28;20058;-62
2021/08/07 05:20:50;;;;;;;9.32;3.80;;;16.20;99.90;;;;;;5107935;28;20051;-63
2021/08/07 05:23:17;;;;;;;9.65;4.30;;;16.30;99.90;;;;;;5072836;28;20177;-62
2021/08/07 05:25:46;;;;;;;11.45;4.30;;;16.20;99.90;;;;;;5089262;28;20055;-61
2021/08/07 05:28:16;;;;;;;9.07;3.67;;;16.00;99.90;;;;;;5089051;28;20062;-61
2021/08/07 05:30:45;;;;;;;10.13;4.90;;;15.90;99.90;;;;;;5090414;28;20719;-62
2021/08/07 05:33:12;;;;;;;9.65;4.18;;;15.70;99.90;;;;;;5107972;28;20533;-60
2021/08/07 05:35:39;;;;;;;8.73;4.05;;;15.70;99.90;;;;;;5114312;28;20042;-62
2021/08/07 05:38:08;;;;;;;7.90;3.67;;;16.00;99.90;;;;;;5090437;28;20062;-61
2021/08/07 05:40:38;;;;;;;9.48;3.63;;;16.30;99.90;;;;;;5088548;28;20173;-62
2021/08/07 05:43:06;;;;;;;7.43;3.33;;;16.60;99.90;;;;;;5107509;28;20086;-62
2021/08/07 05:45:34;;;;;;;8.30;3.47;;;17.00;99.90;;;;;;5087093;28;20139;-62
2021/08/07 05:48:01;;;;;;;7.45;3.75;;;17.20;99.90;;;;;;5085835;28;20066;-58
2021/08/07 05:50:29;;;;;;;9.35;4.30;;;17.50;99.90;;;;;;5089012;28;20070;-60
2021/08/07 05:52:58;;;;;;;14.68;9.52;;;17.60;99.90;;;;;;5087908;28;20068;-62
2021/08/07 05:55:24;;;;;;;76.65;68.38;;;17.80;99.90;;;;;;5107900;28;20399;-63
2021/08/07 05:57:51;;;;;;;34.17;26.33;;;17.70;99.90;;;;;;5089539;28;20050;-61
2021/08/07 06:00:24;;;;;;;12.65;5.22;;;17.60;99.90;;;;;;5089237;28;20494;-62
2021/08/07 06:02:54;;;;;;;11.32;5.38;;;17.30;99.90;;;;;;5090071;28;20100;-63
2021/08/07 06:05:28;;;;;;;12.98;6.22;;;17.10;99.90;;;;;;5089720;28;20128;-61
2021/08/07 06:07:54;;;;;;;10.20;4.53;;;17.00;99.90;;;;;;5089132;28;20490;-62
2021/08/07 06:10:24;;;;;;;17.35;9.40;;;17.00;99.90;;;;;;5072675;28;20058;-64
2021/08/07 06:12:55;;;;;;;14.18;5.13;;;16.90;99.90;;;;;;5093200;28;20047;-61
2021/08/07 06:15:24;;;;;;;35.78;30.80;;;16.90;99.90;;;;;;5087081;28;20767;-57
2021/08/07 06:17:50;;;;;;;36.45;29.80;;;16.90;99.90;;;;;;5068326;28;20131;-63
2021/08/07 06:20:20;;;;;;;19.52;14.70;;;16.90;99.90;;;;;;5082966;28;20087;-61
2021/08/07 06:22:50;;;;;;;10.68;6.53;;;16.90;99.90;;;;;;5099394;28;20051;-63
2021/08/07 06:25:17;;;;;;;11.18;6.32;;;16.90;99.90;;;;;;5110613;28;20092;-63
2021/08/07 06:27:45;;;;;;;7.75;4.60;;;17.00;99.90;;;;;;5105179;28;20051;-62
2021/08/07 06:30:16;;;;;;;12.30;6.35;;;16.90;99.90;;;;;;5083226;28;20048;-61
2021/08/07 06:32:45;;;;;;;13.45;8.98;;;16.90;99.90;;;;;;5092778;28;20051;-63
2021/08/07 06:35:11;;;;;;;17.05;9.75;;;16.90;99.90;;;;;;5089110;28;20047;-60
2021/08/07 06:37:39;;;;;;;37.65;33.50;;;17.00;99.90;;;;;;5093375;28;20062;-60
2021/08/07 06:40:06;;;;;;;47.63;42.63;;;17.00;99.90;;;;;;5111092;28;20399;-63
2021/08/07 06:42:35;;;;;;;27.73;23.05;;;17.10;99.90;;;;;;5093055;28;20048;-63
2021/08/07 06:45:09;;;;;;;14.35;10.90;;;17.10;99.90;;;;;;5099506;28;20093;-62
2021/08/07 06:47:37;;;;;;;10.50;6.03;;;17.20;99.90;;;;;;5098649;28;20047;-58
2021/08/07 06:50:07;;;;;;;9.88;5.03;;;17.50;99.90;;;;;;5109559;28;20701;-59
2021/08/07 06:52:38;;;;;;;12.55;6.85;;;17.80;99.90;;;;;;5109742;28;20047;-58
2021/08/07 06:55:08;;;;;;;14.40;7.72;;;18.00;99.90;;;;;;5089173;28;20507;-56
2021/08/07 06:57:34;;;;;;;30.90;27.48;;;18.20;99.90;;;;;;5072597;28;20148;-58
2021/08/07 07:00:04;;;;;;;59.40;52.90;;;18.20;99.90;;;;;;5090762;28;20083;-62
2021/08/07 07:02:35;;;;;;;;;;;18.30;99.90;;;;;;5087654;28;20079;-62
2021/08/07 07:05:01;;;;;;;16.55;13.93;;;18.40;99.90;;;;;;5112647;28;20328;-64
2021/08/07 07:07:27;;;;;;;8.18;6.07;;;18.50;99.90;;;;;;5109629;28;20447;-62
2021/08/07 07:09:58;;;;;;;8.68;4.18;;;18.30;99.90;;;;;;5091365;28;20081;-62
2021/08/07 07:12:24;;;;;;;10.35;5.18;;;18.10;99.90;;;;;;5109808;28;20742;-61
2021/08/07 07:14:53;;;;;;;9.75;7.40;;;18.30;99.90;;;;;;5090749;28;20475;-63
2021/08/07 07:17:19;;;;;;;9.18;5.03;;;18.70;99.90;;;;;;5091610;28;20492;-61
2021/08/07 07:19:46;;;;;;;10.35;4.32;;;19.40;99.90;;;;;;5109752;28;20040;-61
2021/08/07 07:22:14;;;;;;;6.53;3.75;;;19.90;99.90;;;;;;5108252;28;20076;-60
2021/08/07 07:24:41;;;;;;;7.35;4.57;;;20.50;99.90;;;;;;5097798;28;20567;-63
2021/08/07 07:27:10;;;;;;;7.30;4.30;;;20.70;99.90;;;;;;5105479;28;20058;-60
2021/08/07 07:29:36;;;;;;;8.02;3.97;;;20.60;99.90;;;;;;5088881;28;20385;-61
2021/08/07 07:32:05;;;;;;;7.95;3.28;;;20.70;99.90;;;;;;5100546;28;20043;-58
2021/08/07 07:34:35;;;;;;;6.70;3.50;;;20.80;99.90;;;;;;5090320;28;20055;-62
2021/08/07 07:37:02;;;;;;;6.45;3.17;;;21.10;99.90;;;;;;5116534;28;20100;-65
2021/08/07 07:39:31;;;;;;;9.25;5.32;;;21.00;99.90;;;;;;5091492;28;20054;-59
2021/08/07 07:42:03;;;;;;;5.53;3.30;;;21.20;99.90;;;;;;5108177;28;20863;-65
2021/08/07 07:44:30;;;;;;;7.22;4.88;;;21.40;99.90;;;;;;5076176;28;20468;-62
2021/08/07 07:46:59;;;;;;;7.97;4.30;;;21.40;99.90;;;;;;5094481;28;20039;-64
2021/08/07 07:49:32;;;;;;;7.95;5.05;;;21.00;99.90;;;;;;5107886;28;20651;-64
2021/08/07 07:52:03;;;;;;;8.13;5.25;;;21.10;99.90;;;;;;5090103;28;20055;-60
2021/08/07 07:54:32;;;;;;;5.97;4.10;;;21.60;99.90;;;;;;5108428;28;20040;-61
2021/08/07 07:57:03;;;;;;;4.28;1.90;;;21.30;99.90;;;;;;5089814;28;20065;-58
2021/08/07 07:59:30;;;;;;;6.15;1.55;;;21.20;99.90;;;;;;5089917;28;20058;-58
2021/08/07 08:02:02;;;;;;;7.30;2.13;;;20.80;99.90;;;;;;5095026;28;20076;-58
2021/08/07 08:04:31;;;;;;;6.70;2.05;;;20.70;99.90;;;;;;5097469;28;20585;-58
2021/08/07 08:07:01;;;;;;;5.95;1.80;;;20.30;99.90;;;;;;5107615;28;20538;-58
2021/08/07 08:09:28;;;;;;;5.57;1.90;;;20.10;99.90;;;;;;5090501;28;20051;-59
2021/08/07 08:11:55;;;;;;;3.33;1.50;;;19.80;99.90;;;;;;5093090;28;20055;-59
2021/08/07 08:14:36;;;;;;;5.38;1.83;;;20.00;99.90;;;;;;5055262;28;20074;-58
2021/08/07 08:17:05;;;;;;;5.70;2.30;;;20.00;99.90;;;;;;5108652;28;20055;-58
2021/08/07 08:19:34;;;;;;;4.68;2.58;;;19.90;99.90;;;;;;5097082;28;20497;-59
2021/08/07 08:22:04;;;;;;;6.80;2.00;;;20.00;99.90;;;;;;5089536;28;20051;-58
2021/08/07 08:24:31;;;;;;;7.40;2.08;;;20.20;99.90;;;;;;5089384;28;20051;-59
2021/08/07 08:27:00;;;;;;;5.05;1.80;;;20.20;99.90;;;;;;5108636;28;20051;-59
2021/08/07 08:29:26;;;;;;;4.03;1.73;;;20.00;99.90;;;;;;5107418;28;20055;-58
2021/08/07 08:31:53;;;;;;;6.75;2.25;;;20.10;99.90;;;;;;5089714;28;20071;-59
2021/08/07 08:34:23;;;;;;;6.32;1.90;;;20.20;99.90;;;;;;5089084;28;20051;-59
2021/08/07 08:36:54;;;;;;;7.18;2.13;;;20.20;99.90;;;;;;5107709;28;20051;-58
2021/08/07 08:39:23;;;;;;;4.40;1.85;;;20.20;99.90;;;;;;5089238;28;20081;-58
2021/08/07 08:41:54;;;;;;;5.53;2.05;;;20.50;99.90;;;;;;5088646;28;20503;-59
2021/08/07 08:44:24;;;;;;;5.75;2.38;;;20.50;99.90;;;;;;5090574;28;20097;-59
2021/08/07 08:46:56;;;;;;;6.40;2.03;;;21.00;99.90;;;;;;5107715;28;20047;-59
2021/08/07 08:49:23;;;;;;;2.78;1.40;;;21.60;99.90;;;;;;5108652;28;20666;-59
2021/08/07 08:51:53;;;;;;;3.95;1.73;;;22.10;99.90;;;;;;5088524;28;20055;-59
2021/08/07 08:54:19;;;;;;;4.00;1.42;;;23.00;99.90;;;;;;5088009;28;20481;-58
2021/08/07 08:56:47;;;;;;;4.18;1.58;;;23.70;99.90;;;;;;5107621;28;20050;-60
2021/08/07 08:59:14;;;;;;;5.50;1.60;;;23.70;98.00;;;;;;5089241;28;20063;-60
2021/08/07 09:01:40;;;;;;;5.20;1.65;;;24.10;99.70;;;;;;5071847;28;20044;-60
2021/08/07 09:04:07;;;;;;;4.60;1.38;;;23.90;91.70;;;;;;5088181;28;20161;-60
2021/08/07 09:06:39;;;;;;;4.60;1.45;;;23.90;96.30;;;;;;5088846;28;20043;-59
2021/08/07 09:09:11;;;;;;;5.03;1.60;;;23.90;94.70;;;;;;5089394;28;20040;-59
2021/08/07 09:11:59;;;;;;;2.58;0.98;;;23.90;94.80;;;;;;5088977;28;20504;-57
2021/08/07 09:14:37;;;;;;;5.35;1.00;;;24.20;87.50;;;;;;5072515;28;20441;-60
2021/08/07 09:17:20;;;;;;;5.50;1.20;;;24.60;90.90;;;;;;5088566;28;20125;-59
2021/08/07 09:19:56;;;;;;;4.15;1.20;;;24.70;79.40;;;;;;5090643;28;20050;-60
2021/08/07 09:22:30;;;;;;;4.03;1.52;;;24.80;68.90;;;;;;5107369;28;20647;-59
2021/08/07 09:25:15;;;;;;;3.58;1.35;;;24.70;70.60;;;;;;5084959;28;20036;-60
2021/08/07 09:27:49;;;;;;;6.43;2.95;;;24.90;73.80;;;;;;5087713;28;20052;-54
2021/08/07 09:30:25;;;;;;;25.92;23.35;;;25.20;71.60;;;;;;5101604;28;20055;-57
2021/08/07 09:33:00;;;;;;;4.53;1.63;;;24.90;67.30;;;;;;5088872;27;20044;-56
2021/08/07 09:35:33;;;;;;;12.93;10.95;;;25.30;69.50;;;;;;5105358;28;20787;-53
2021/08/07 09:38:12;;;;;;;4.72;1.90;;;25.70;67.60;;;;;;5106880;28;20926;-59
2021/08/07 09:40:51;;;;;;;2.30;0.90;;;26.30;69.30;;;;;;5088960;28;20043;-59
2021/08/07 09:43:30;;;;;;;6.38;3.60;;;26.30;62.00;;;;;;5071865;28;20138;-60
2021/08/07 09:46:00;;;;;;;3.72;1.35;;;26.10;59.40;;;;;;5088605;28;20149;-60
2021/08/07 09:48:47;;;;;;;6.63;1.63;;;25.90;59.80;;;;;;5014167;28;20815;-59
2021/08/07 09:51:32;;;;;;;5.18;1.67;;;25.70;59.10;;;;;;5092982;28;20051;-60
2021/08/07 09:54:22;;;;;;;5.35;1.73;;;26.10;62.10;;;;;;5097929;28;20764;-60
2021/08/07 09:56:57;;;;;;;3.25;1.48;;;26.00;61.00;;;;;;5107340;28;20102;-60
2021/08/07 09:59:46;;;;;;;4.20;1.55;;;25.60;59.60;;;;;;5088986;28;20056;-60
2021/08/07 10:02:32;;;;;;;3.10;1.13;;;25.60;59.60;;;;;;5101422;28;20511;-60
2021/08/07 10:05:02;;;;;;;7.50;5.78;;;25.30;59.40;;;;;;5087436;28;20043;-64
2021/08/07 10:07:32;;;;;;;3.58;1.10;;;25.80;63.90;;;;;;5089452;28;20071;-65
2021/08/07 10:10:26;;;;;;;5.05;2.78;;;26.20;62.80;;;;;;5096754;28;20052;-58
2021/08/07 10:13:01;;;;;;;5.90;2.25;;;26.70;58.10;;;;;;5092964;28;20048;-63
2021/08/07 10:15:41;;;;;;;7.25;4.10;;;25.90;60.20;;;;;;5111225;28;20160;-64
2021/08/07 10:18:08;;;;;;;5.63;3.70;;;26.00;60.70;;;;;;5093479;28;20055;-65
2021/08/07 10:20:37;;;;;;;4.45;1.30;;;26.40;59.70;;;;;;5113145;28;20056;-63
2021/08/07 10:23:05;;;;;;;3.13;2.15;;;26.80;60.30;;;;;;5092891;28;20051;-61
2021/08/07 10:25:35;;;;;;;2.47;1.25;;;27.70;61.00;;;;;;5091743;28;20496;-65
2021/08/07 10:28:03;;;;;;;5.55;2.22;;;28.40;57.50;;;;;;5110795;28;20051;-62
2021/08/07 10:30:37;;;;;;;5.72;2.63;;;28.80;56.50;;;;;;5099852;28;20063;-65
2021/08/07 10:33:08;;;;;;;7.40;5.78;;;29.10;54.70;;;;;;5091551;28;20142;-66
2021/08/07 10:35:34;;;;;;;3.25;1.40;;;29.10;53.80;;;;;;5109766;28;20052;-61
2021/08/07 10:38:03;;;;;;;4.28;1.27;;;29.10;54.20;;;;;;5110324;28;20452;-66
2021/08/07 10:40:30;;;;;;;3.95;1.08;;;29.30;53.80;;;;;;5097323;28;20491;-63
2021/08/07 10:42:59;;;;;;;5.68;2.67;;;29.10;52.30;;;;;;5092504;28;20090;-63
2021/08/07 10:45:30;;;;;;;4.75;1.95;;;28.70;52.40;;;;;;5109850;28;20393;-65
2021/08/07 10:47:57;;;;;;;2.30;0.90;;;28.50;51.30;;;;;;5108837;28;20096;-64
2021/08/07 10:50:28;;;;;;;8.32;5.57;;;28.10;54.20;;;;;;5090126;28;20050;-62
2021/08/07 10:53:19;;;;;;;7.95;6.20;;;28.60;51.30;;;;;;5085972;28;20056;-63
2021/08/07 10:55:56;;;;;;;6.53;3.78;;;28.30;50.40;;;;;;5068473;28;20515;-65
2021/08/07 10:58:45;;;;;;;3.45;1.00;;;28.50;53.20;;;;;;5084632;28;20056;-64
2021/08/07 11:04:06;;;;;;;2.65;0.90;;;28.50;50.80;;;;;;5090390;28;20075;-64
2021/08/07 11:06:38;;;;;;;2.63;1.10;;;27.60;51.40;;;;;;5089270;28;20116;-58
2021/08/07 11:09:14;;;;;;;2.55;0.80;;;27.00;51.90;;;;;;5089272;28;20159;-62
2021/08/07 11:11:42;;;;;;;2.50;0.88;;;26.40;54.90;;;;;;5089223;28;20147;-61
2021/08/07 11:14:26;;;;;;;2.95;0.90;;;25.90;56.70;;;;;;5087851;28;20047;-62
2021/08/07 11:17:07;;;;;;;3.78;1.13;;;25.40;59.00;;;;;;5089922;28;20101;-64
2021/08/07 11:20:00;;;;;;;4.15;0.90;;;25.40;58.60;;;;;;5089050;28;20075;-64
2021/08/07 11:22:32;;;;;;;4.00;0.93;;;25.40;59.90;;;;;;5076723;28;20052;-63
2021/08/07 11:25:05;;;;;;;2.65;0.70;;;25.80;58.10;;;;;;5088250;28;20586;-60
2021/08/07 11:27:53;;;;;;;3.45;1.08;;;26.40;57.60;;;;;;5090639;28;20516;-63
2021/08/07 11:30:45;;;;;;;3.25;1.10;;;27.30;56.50;;;;;;5092388;28;20051;-62
2021/08/07 11:33:13;;;;;;;4.38;0.90;;;27.60;55.70;;;;;;5093448;28;20153;-62
2021/08/07 11:35:45;;;;;;;3.97;1.08;;;27.90;53.70;;;;;;5088432;28;20400;-64
2021/08/07 11:38:22;;;;;;;4.40;1.45;;;28.80;55.70;;;;;;5095131;28;20055;-65
2021/08/07 11:40:53;;;;;;;3.00;0.98;;;28.80;49.70;;;;;;5089522;28;20051;-62
2021/08/07 11:43:21;;;;;;;4.93;1.33;;;28.90;52.00;;;;;;5089034;28;20518;-61
2021/08/07 11:46:08;;;;;;;3.47;1.20;;;29.00;48.00;;;;;;5087570;28;20052;-66
2021/08/07 11:48:39;;;;;;;4.50;1.30;;;29.10;50.90;;;;;;5079071;28;20055;-64
2021/08/07 11:51:11;;;;;;;4.28;1.15;;;29.30;50.80;;;;;;5089169;28;20062;-64
2021/08/07 11:53:42;;;;;;;8.02;5.68;;;28.30;51.30;;;;;;5093947;28;20063;-63
2021/08/07 11:56:13;;;;;;;13.50;6.07;;;27.80;51.60;;;;;;5110462;28;20043;-63
2021/08/07 11:58:47;;;;;;;5.13;1.38;;;27.40;51.20;;;;;;5107434;28;20050;-62
2021/08/07 12:01:18;;;;;;;3.45;1.30;;;27.00;51.20;;;;;;5106691;28;20051;-63
2021/08/07 12:03:45;;;;;;;5.15;2.05;;;27.20;52.80;;;;;;5106975;28;20111;-61
2021/08/07 12:06:17;;;;;;;11.85;8.82;;;27.10;54.60;;;;;;5105420;28;20498;-64
2021/08/07 12:08:47;;;;;;;28.25;25.27;;;26.70;54.00;;;;;;5108545;28;20070;-59
2021/08/07 12:11:15;;;;;;;12.93;11.40;;;26.50;54.10;;;;;;5114776;28;20048;-66
2021/08/07 12:13:51;;;;;;;5.72;1.60;;;26.20;53.10;;;;;;5108457;28;20083;-61
2021/08/07 12:16:21;;;;;;;3.65;1.30;;;25.70;54.50;;;;;;5108390;28;20052;-65
2021/08/07 12:18:53;;;;;;;11.68;9.75;;;25.60;55.10;;;;;;5108636;28;20047;-64
2021/08/07 12:21:33;;;;;;;8.27;2.35;;;25.80;56.10;;;;;;5089729;28;20052;-63
2021/08/07 12:24:05;;;;;;;3.92;1.55;;;26.30;56.60;;;;;;5108453;28;20054;-63
2021/08/07 12:26:45;;;;;;;9.48;4.45;;;27.00;54.00;;;;;;5107200;28;20120;-64
2021/08/07 12:29:15;;;;;;;7.30;4.20;;;26.90;53.10;;;;;;5107012;28;20064;-64
2021/08/07 12:31:44;;;;;;;3.55;1.42;;;26.30;52.90;;;;;;5108285;28;20385;-65
2021/08/07 12:34:23;;;;;;;2.78;1.17;;;26.80;53.70;;;;;;5087411;28;20055;-61
2021/08/07 12:37:12;;;;;;;2.92;1.27;;;27.00;53.50;;;;;;5098649;28;20052;-65
2021/08/07 12:39:44;;;;;;;2.92;1.13;;;27.60;55.80;;;;;;5111703;28;20496;-60
2021/08/07 12:42:16;;;;;;;8.27;5.43;;;26.70;54.70;;;;;;5104424;28;20116;-66
2021/08/07 12:44:42;;;;;;;5.90;2.05;;;26.80;54.60;;;;;;5103314;28;20069;-62
2021/08/07 12:47:10;;;;;;;5.93;2.75;;;27.40;53.20;;;;;;5103918;28;20594;-66
2021/08/07 12:49:44;;;;;;;3.40;1.40;;;28.00;53.00;;;;;;5102999;28;20054;-63
2021/08/07 12:52:18;;;;;;;7.53;2.88;;;28.10;54.10;;;;;;5108821;28;20424;-65
2021/08/07 12:55:05;;;;;;;4.88;3.92;;;28.40;53.50;;;;;;5105555;28;20043;-63
2021/08/07 12:57:33;;;;;;;5.80;3.10;;;27.50;50.40;;;;;;5087630;28;20043;-62
2021/08/07 13:00:05;;;;;;;8.68;6.43;;;27.20;51.90;;;;;;5103842;28;20067;-64
2021/08/07 13:02:32;;;;;;;3.78;1.88;;;26.50;52.50;;;;;;5104513;28;20134;-65
2021/08/07 13:05:00;;;;;;;2.53;0.75;;;27.00;51.60;;;;;;5106105;28;20055;-65
2021/08/07 13:07:32;;;;;;;3.50;1.73;;;27.60;51.60;;;;;;5097687;28;22088;-61
2021/08/07 13:10:22;;;;;;;3.30;1.20;;;28.00;50.40;;;;;;5097100;28;20130;-62
2021/08/07 13:12:50;;;;;;;5.55;1.98;;;28.20;49.20;;;;;;5092034;28;20411;-61